createdAt,value
2019-04-28T00:02:20.584Z,9.59
2019-04-28T00:04:49.200Z,9.56
2019-04-28T00:07:16.424Z,9.53
2019-04-28T00:09:43.679Z,9.54
2019-04-28T00:12:11.479Z,9.52
2019-04-28T00:14:39.024Z,9.52
2019-04-28T00:17:07.366Z,9.52
2019-04-28T00:19:34.933Z,9.52
2019-04-28T00:22:24.388Z,9.52
2019-04-28T00:25:11.541Z,9.53
2019-04-28T00:27:38.802Z,9.50
2019-04-28T00:30:07.131Z,9.48
2019-04-28T00:32:34.353Z,9.45
2019-04-28T00:35:02.350Z,9.44
2019-04-28T00:37:34.899Z,9.41
2019-04-28T00:40:02.360Z,9.38
2019-04-28T00:42:31.339Z,9.34
2019-04-28T00:44:58.838Z,9.34
2019-04-28T00:47:26.068Z,9.33
2019-04-28T00:49:53.353Z,9.29
2019-04-28T00:52:22.185Z,9.27
2019-04-28T00:54:50.105Z,9.28
2019-04-28T00:57:18.002Z,9.33
2019-04-28T00:59:54.137Z,9.33
2019-04-28T01:02:34.545Z,9.36
2019-04-28T01:05:02.018Z,9.35
2019-04-28T01:07:31.327Z,9.36
2019-04-28T01:09:58.460Z,9.38
2019-04-28T01:12:25.689Z,9.28
2019-04-28T01:14:55.527Z,9.28
2019-04-28T01:17:40.228Z,9.32
2019-04-28T01:20:09.851Z,9.37
2019-04-28T01:22:37.174Z,9.37
2019-04-28T01:25:04.676Z,9.33
2019-04-28T01:27:51.503Z,9.36
2019-04-28T01:30:40.112Z,9.33
2019-04-28T01:33:17.064Z,9.27
2019-04-28T01:35:44.303Z,9.27
2019-04-28T01:38:12.270Z,9.32
2019-04-28T01:40:41.272Z,9.35
2019-04-28T01:43:09.701Z,9.37
2019-04-28T01:45:37.077Z,9.38
2019-04-28T01:48:04.318Z,9.37
2019-04-28T01:50:31.542Z,9.35
2019-04-28T01:52:59.760Z,9.37
2019-04-28T01:55:27.179Z,9.36
2019-04-28T01:57:54.398Z,9.34
2019-04-28T02:00:25.455Z,9.31
2019-04-28T02:02:51.039Z,9.27
2019-04-28T02:05:19.670Z,9.25
2019-04-28T02:07:47.092Z,9.20
2019-04-28T02:10:14.368Z,9.16
2019-04-28T02:12:41.629Z,9.15
2019-04-28T02:15:10.486Z,9.16
2019-04-28T02:17:39.997Z,9.15
2019-04-28T02:20:10.347Z,9.14
2019-04-28T02:22:46.244Z,9.12
2019-04-28T02:25:13.472Z,9.10
2019-04-28T02:27:40.717Z,9.04
2019-04-28T02:30:11.509Z,9.03
2019-04-28T02:32:40.701Z,8.99
2019-04-28T02:35:10.398Z,8.94
2019-04-28T02:37:36.749Z,8.91
2019-04-28T02:40:04.788Z,8.85
2019-04-28T02:42:32.016Z,8.82
2019-04-28T02:45:00.585Z,8.79
2019-04-28T02:47:28.136Z,8.77
2019-04-28T02:50:17.949Z,8.70
2019-04-28T02:53:02.317Z,8.73
2019-04-28T02:55:31.659Z,8.67
2019-04-28T02:58:01.427Z,8.69
2019-04-28T03:00:28.077Z,8.71
2019-04-28T03:02:55.353Z,8.73
2019-04-28T03:05:22.672Z,8.73
2019-04-28T03:07:51.483Z,8.71
2019-04-28T03:10:21.340Z,8.71
2019-04-28T03:12:51.334Z,8.68
2019-04-28T03:15:20.218Z,8.69
2019-04-28T03:17:46.632Z,8.65
2019-04-28T03:20:13.859Z,8.60
2019-04-28T03:22:41.217Z,8.45
2019-04-28T03:25:13.175Z,8.38
2019-04-28T03:28:00.595Z,8.38
2019-04-28T03:30:53.787Z,8.39
2019-04-28T03:33:25.128Z,8.37
2019-04-28T03:35:53.391Z,8.35
2019-04-28T03:38:21.219Z,8.35
2019-04-28T03:40:47.446Z,8.33
2019-04-28T03:43:14.898Z,8.31
2019-04-28T03:45:50.336Z,8.32
2019-04-28T03:48:17.739Z,8.29
2019-04-28T03:50:44.994Z,8.27
2019-04-28T03:53:12.220Z,8.27
2019-04-28T03:55:41.573Z,8.27
2019-04-28T03:58:10.367Z,8.29
2019-04-28T04:00:40.625Z,8.31
2019-04-28T04:03:06.894Z,8.32
2019-04-28T04:05:34.227Z,8.33
2019-04-28T04:08:01.490Z,8.32
2019-04-28T04:10:40.856Z,8.33
2019-04-28T04:13:33.063Z,8.35
2019-04-28T04:16:20.518Z,8.40
2019-04-28T04:18:53.158Z,8.41
2019-04-28T04:21:21.180Z,8.42
2019-04-28T04:23:47.215Z,8.42
2019-04-28T04:26:14.425Z,8.39
2019-04-28T04:28:42.033Z,8.36
2019-04-28T04:31:10.377Z,8.38
2019-04-28T04:33:40.750Z,8.42
2019-04-28T04:36:07.025Z,8.47
2019-04-28T04:38:34.250Z,8.49
2019-04-28T04:41:01.900Z,8.50
2019-04-28T04:43:31.057Z,8.53
2019-04-28T04:46:17.533Z,8.63
2019-04-28T04:48:45.408Z,8.81
2019-04-28T04:51:12.971Z,8.97
2019-04-28T04:53:40.872Z,9.14
2019-04-28T04:56:10.514Z,9.32
2019-04-28T04:58:37.507Z,9.53
2019-04-28T05:01:14.443Z,9.72
2019-04-28T05:03:43.278Z,9.93
2019-04-28T05:06:29.799Z,10.13
2019-04-28T05:08:57.159Z,10.32
2019-04-28T05:11:24.418Z,10.53
2019-04-28T05:13:51.650Z,10.79
2019-04-28T05:16:19.757Z,10.79
2019-04-28T05:18:47.147Z,10.82
2019-04-28T05:21:14.465Z,10.83
2019-04-28T05:23:49.314Z,10.90
2019-04-28T05:26:16.829Z,10.96
2019-04-28T05:28:50.597Z,10.96
2019-04-28T05:31:19.938Z,11.03
2019-04-28T05:33:42.378Z,10.87
2019-04-28T05:36:11.813Z,10.97
2019-04-28T05:38:40.169Z,11.17
2019-04-28T05:41:10.432Z,11.33
2019-04-28T05:43:37.380Z,11.55
2019-04-28T05:46:04.679Z,11.74
2019-04-28T05:48:47.224Z,11.87
2019-04-28T05:51:19.770Z,12.02
2019-04-28T05:53:53.880Z,12.08
2019-04-28T05:56:26.979Z,12.02
2019-04-28T05:59:01.055Z,12.01
2019-04-28T06:01:46.485Z,12.01
2019-04-28T06:04:13.724Z,12.04
2019-04-28T06:06:43.057Z,12.05
2019-04-28T06:09:20.542Z,12.07
2019-04-28T06:11:49.529Z,12.12
2019-04-28T06:14:17.355Z,12.09
2019-04-28T06:16:44.782Z,12.09
2019-04-28T06:19:12.052Z,12.04
2019-04-28T06:21:39.304Z,12.13
2019-04-28T06:24:06.529Z,12.19
2019-04-28T06:26:33.817Z,12.24
2019-04-28T06:29:01.040Z,12.38
2019-04-28T06:31:28.389Z,12.44
2019-04-28T06:33:55.660Z,12.58
2019-04-28T06:36:22.913Z,12.76
2019-04-28T06:38:50.151Z,12.90
2019-04-28T06:41:17.404Z,13.09
2019-04-28T06:43:44.644Z,13.29
2019-04-28T06:46:11.967Z,13.49
2019-04-28T06:48:39.452Z,13.71
2019-04-28T06:51:06.676Z,13.73
2019-04-28T06:53:33.993Z,13.96
2019-04-28T06:56:01.247Z,14.19
2019-04-28T06:58:29.001Z,14.25
2019-04-28T07:00:56.365Z,14.43
2019-04-28T07:03:23.604Z,14.47
2019-04-28T07:05:50.830Z,14.46
2019-04-28T07:08:18.085Z,14.58
2019-04-28T07:10:48.411Z,14.69
2019-04-28T07:13:15.716Z,14.82
2019-04-28T07:15:42.946Z,14.93
2019-04-28T07:18:10.173Z,14.97
2019-04-28T07:20:59.869Z,15.02
2019-04-28T07:23:27.237Z,14.91
2019-04-28T07:25:54.475Z,15.01
2019-04-28T07:28:21.770Z,15.01
2019-04-28T07:30:49.360Z,15.03
2019-04-28T07:33:16.758Z,15.06
2019-04-28T07:35:44.158Z,14.99
2019-04-28T07:38:11.463Z,14.95
2019-04-28T07:40:39.746Z,14.94
2019-04-28T07:43:07.152Z,14.92
2019-04-28T07:45:34.654Z,14.90
2019-04-28T07:48:01.980Z,14.88
2019-04-28T07:50:29.254Z,14.86
2019-04-28T07:53:17.174Z,14.86
2019-04-28T07:55:44.430Z,14.78
2019-04-28T07:58:11.997Z,14.74
2019-04-28T08:00:39.420Z,14.75
2019-04-28T08:03:06.694Z,14.82
2019-04-28T08:05:34.014Z,14.90
2019-04-28T08:08:01.274Z,14.89
2019-04-28T08:10:28.661Z,14.86
2019-04-28T08:12:55.935Z,14.77
2019-04-28T08:15:23.162Z,14.74
2019-04-28T08:17:50.393Z,14.76
2019-04-28T08:20:17.694Z,14.73
2019-04-28T08:22:44.938Z,14.56
2019-04-28T08:25:12.182Z,14.59
2019-04-28T08:27:39.612Z,14.63
2019-04-28T08:30:07.165Z,14.65
2019-04-28T08:32:40.759Z,14.57
2019-04-28T08:35:08.120Z,14.56
2019-04-28T08:37:35.417Z,14.59
2019-04-28T08:40:03.264Z,14.61
2019-04-28T08:42:30.529Z,14.55
2019-04-28T08:44:57.795Z,14.62
2019-04-28T08:47:25.170Z,14.72
2019-04-28T08:49:52.410Z,14.63
2019-04-28T08:52:19.633Z,14.65
2019-04-28T08:54:46.958Z,14.54
2019-04-28T08:57:14.177Z,14.56
2019-04-28T08:59:41.401Z,14.60
2019-04-28T09:02:08.676Z,14.47
2019-04-28T09:04:35.911Z,14.48
2019-04-28T09:07:03.246Z,14.54
2019-04-28T09:09:30.625Z,14.53
2019-04-28T09:11:57.893Z,14.58
2019-04-28T09:14:25.127Z,14.51
2019-04-28T09:16:52.495Z,14.55
2019-04-28T09:19:19.760Z,14.45
2019-04-28T09:21:46.991Z,14.50
2019-04-28T09:24:14.217Z,14.46
2019-04-28T09:26:41.488Z,14.52
2019-04-28T09:29:08.811Z,14.59
2019-04-28T09:31:36.390Z,14.59
2019-04-28T09:34:04.072Z,14.62
2019-04-28T09:36:31.520Z,14.68
2019-04-28T09:38:59.362Z,14.74
2019-04-28T09:41:26.882Z,14.86
2019-04-28T09:44:16.670Z,14.79
2019-04-28T09:46:44.025Z,14.82
2019-04-28T09:49:11.840Z,14.82
2019-04-28T09:51:39.102Z,14.84
2019-04-28T09:54:06.591Z,14.82
2019-04-28T09:56:33.818Z,14.80
2019-04-28T09:59:01.044Z,14.70
2019-04-28T10:01:28.398Z,14.77
2019-04-28T10:03:55.629Z,14.77
2019-04-28T10:06:22.858Z,14.88
2019-04-28T10:08:50.131Z,14.93
2019-04-28T10:11:29.721Z,14.98
2019-04-28T10:13:46.511Z,15.03
2019-04-28T10:16:13.753Z,15.01
2019-04-28T10:18:40.988Z,15.03
2019-04-28T10:21:08.283Z,15.05
2019-04-28T10:23:35.515Z,15.01
2019-04-28T10:26:02.761Z,15.02
2019-04-28T10:28:30.054Z,15.05
2019-04-28T10:30:57.288Z,15.05
2019-04-28T10:33:24.513Z,15.04
2019-04-28T10:35:51.774Z,15.07
2019-04-28T10:38:19.016Z,15.12
2019-04-28T10:40:58.548Z,15.21
2019-04-28T10:43:26.116Z,15.19
2019-04-28T10:45:53.399Z,15.21
2019-04-28T10:48:20.658Z,15.28
2019-04-28T10:50:47.959Z,15.28
2019-04-28T10:53:15.218Z,14.99
2019-04-28T10:55:42.437Z,15.15
2019-04-28T10:58:09.714Z,15.28
2019-04-28T11:00:38.786Z,15.02
2019-04-28T11:03:06.134Z,15.18
2019-04-28T11:05:37.792Z,15.09
2019-04-28T11:08:07.887Z,15.00
2019-04-28T11:10:35.106Z,14.89
2019-04-28T11:13:02.402Z,14.66
2019-04-28T11:15:34.896Z,14.83
2019-04-28T11:18:02.220Z,14.92
2019-04-28T11:20:30.054Z,14.92
2019-04-28T11:22:57.281Z,15.07
2019-04-28T11:25:24.510Z,14.96
2019-04-28T11:27:51.780Z,14.95
2019-04-28T11:30:19.314Z,14.86
2019-04-28T11:33:18.397Z,14.83
2019-04-28T11:35:45.916Z,14.82
2019-04-28T11:38:13.162Z,14.62
2019-04-28T11:40:40.450Z,14.43
2019-04-28T11:43:07.689Z,14.47
2019-04-28T11:45:35.027Z,14.56
2019-04-28T11:48:02.547Z,14.58
2019-04-28T11:50:29.841Z,14.59
2019-04-28T11:52:57.059Z,14.60
2019-04-28T11:55:24.345Z,14.55
2019-04-28T11:57:51.580Z,14.56
2019-04-28T12:00:31.618Z,14.60
2019-04-28T12:02:59.036Z,14.22
2019-04-28T12:05:34.706Z,14.39
2019-04-28T12:08:00.550Z,14.42
2019-04-28T12:10:32.483Z,14.46
2019-04-28T12:13:25.313Z,14.52
2019-04-28T12:16:16.291Z,14.53
2019-04-28T12:18:49.355Z,14.53
2019-04-28T12:21:16.591Z,14.48
2019-04-28T12:23:44.239Z,14.47
2019-04-28T12:26:11.520Z,14.47
2019-04-28T12:28:38.778Z,14.43
2019-04-28T12:31:08.015Z,14.03
2019-04-28T12:33:35.320Z,13.79
2019-04-28T12:36:04.652Z,13.47
2019-04-28T12:38:31.909Z,12.79
2019-04-28T12:40:59.170Z,12.77
2019-04-28T12:43:26.486Z,12.32
2019-04-28T12:45:53.725Z,12.17
2019-04-28T12:48:21.039Z,12.16
2019-04-28T12:50:50.040Z,11.92
2019-04-28T12:53:17.276Z,11.74
2019-04-28T12:55:44.554Z,11.60
2019-04-28T12:58:11.850Z,11.35
2019-04-28T13:00:57.207Z,11.30
2019-04-28T13:03:33.310Z,11.11
2019-04-28T13:06:05.550Z,10.79
2019-04-28T13:08:31.298Z,10.75
2019-04-28T13:10:58.575Z,10.78
2019-04-28T13:13:25.816Z,10.57
2019-04-28T13:15:53.049Z,10.53
2019-04-28T13:18:20.332Z,10.77
2019-04-28T13:20:47.588Z,10.77
2019-04-28T13:23:14.808Z,10.71
2019-04-28T13:25:42.137Z,10.68
2019-04-28T13:28:09.338Z,10.62
2019-04-28T13:30:36.573Z,10.63
2019-04-28T13:33:03.870Z,10.63
2019-04-28T13:35:31.222Z,10.58
2019-04-28T13:37:58.461Z,10.53
2019-04-28T13:40:29.558Z,10.53
2019-04-28T13:42:56.831Z,10.82
2019-04-28T13:45:24.381Z,10.82
2019-04-28T13:47:51.594Z,10.82
2019-04-28T13:50:27.235Z,10.92
2019-04-28T13:52:54.456Z,10.83
2019-04-28T13:55:39.730Z,10.94
2019-04-28T13:58:07.105Z,11.16
2019-04-28T14:00:57.938Z,11.19
2019-04-28T14:03:44.699Z,11.19
2019-04-28T14:06:27.218Z,11.24
2019-04-28T14:08:43.486Z,11.21
2019-04-28T14:11:10.871Z,11.32
2019-04-28T14:13:38.152Z,11.32
2019-04-28T14:16:05.588Z,11.36
2019-04-28T14:18:32.859Z,11.35
2019-04-28T14:21:00.078Z,11.35
2019-04-28T14:23:27.341Z,11.61
2019-04-28T14:25:54.572Z,11.54
2019-04-28T14:28:21.816Z,11.46
2019-04-28T14:30:49.108Z,11.62
2019-04-28T14:33:16.782Z,11.70
2019-04-28T14:35:44.115Z,11.70
2019-04-28T14:38:11.384Z,11.80
2019-04-28T14:40:38.627Z,11.80
2019-04-28T14:43:05.849Z,11.96
2019-04-28T14:45:33.324Z,11.87
2019-04-28T14:48:00.625Z,11.77
2019-04-28T14:50:27.935Z,11.82
2019-04-28T14:52:55.253Z,12.00
2019-04-28T14:55:22.562Z,12.11
2019-04-28T14:57:49.807Z,12.12
2019-04-28T15:00:22.262Z,11.98
2019-04-28T15:03:02.300Z,12.38
2019-04-28T15:05:41.256Z,12.27
2019-04-28T15:08:26.459Z,12.22
2019-04-28T15:11:01.184Z,12.24
2019-04-28T15:13:28.427Z,12.41
2019-04-28T15:15:55.639Z,12.43
2019-04-28T15:18:22.994Z,12.63
2019-04-28T15:20:50.314Z,12.43
2019-04-28T15:23:17.507Z,12.62
2019-04-28T15:25:44.736Z,12.58
2019-04-28T15:28:12.045Z,12.82
2019-04-28T15:30:39.319Z,13.03
2019-04-28T15:33:06.677Z,13.03
2019-04-28T15:35:33.995Z,13.04
2019-04-28T15:38:01.225Z,13.15
2019-04-28T15:40:28.522Z,13.05
2019-04-28T15:42:55.759Z,13.06
2019-04-28T15:45:22.978Z,13.16
2019-04-28T15:47:50.290Z,13.28
2019-04-28T15:50:17.547Z,13.32
2019-04-28T15:52:44.831Z,13.41
2019-04-28T15:55:14.423Z,13.42
2019-04-28T15:57:41.653Z,13.43
2019-04-28T16:00:11.978Z,13.43
2019-04-28T16:02:39.237Z,13.45
2019-04-28T16:05:06.892Z,13.42
2019-04-28T16:07:34.124Z,13.33
2019-04-28T16:10:01.387Z,13.28
2019-04-28T16:12:28.633Z,13.15
2019-04-28T16:14:55.873Z,13.23
2019-04-28T16:17:23.172Z,13.26
2019-04-28T16:19:50.389Z,13.06
2019-04-28T16:22:17.629Z,12.97
2019-04-28T16:24:44.917Z,13.03
2019-04-28T16:27:12.246Z,12.90
2019-04-28T16:29:39.477Z,13.02
2019-04-28T16:32:09.691Z,13.02
2019-04-28T16:34:36.025Z,13.02
2019-04-28T16:37:03.266Z,12.96
2019-04-28T16:39:30.521Z,12.85
2019-04-28T16:41:58.450Z,12.83
2019-04-28T16:44:26.412Z,12.88
2019-04-28T16:46:53.651Z,12.98
2019-04-28T16:49:20.965Z,12.88
2019-04-28T16:51:48.243Z,12.77
2019-04-28T16:54:15.483Z,12.89
2019-04-28T16:57:05.127Z,12.81
2019-04-28T16:59:50.583Z,12.93
2019-04-28T17:02:37.399Z,12.95
2019-04-28T17:05:05.863Z,12.89
2019-04-28T17:07:33.189Z,12.97
2019-04-28T17:10:00.472Z,12.97
2019-04-28T17:12:27.702Z,13.02
2019-04-28T17:14:54.914Z,12.99
2019-04-28T17:17:22.178Z,12.84
2019-04-28T17:19:49.417Z,12.88
2019-04-28T17:22:16.667Z,12.77
2019-04-28T17:24:44.025Z,12.70
2019-04-28T17:27:11.271Z,12.49
2019-04-28T17:29:38.822Z,12.58
2019-04-28T17:32:06.138Z,12.49
2019-04-28T17:34:33.403Z,12.47
2019-04-28T17:37:00.679Z,12.47
2019-04-28T17:39:29.589Z,12.27
2019-04-28T17:41:56.853Z,12.35
2019-04-28T17:44:24.184Z,12.26
2019-04-28T17:46:51.490Z,12.21
2019-04-28T17:49:24.221Z,12.21
2019-04-28T17:51:51.588Z,12.18
2019-04-28T17:54:18.853Z,12.17
2019-04-28T17:56:46.078Z,12.05
2019-04-28T17:59:13.353Z,12.05
2019-04-28T18:02:12.321Z,12.01
2019-04-28T18:04:59.138Z,12.15
2019-04-28T18:07:34.504Z,12.09
2019-04-28T18:10:01.880Z,12.10
2019-04-28T18:12:29.095Z,11.90
2019-04-28T18:15:02.131Z,11.98
2019-04-28T18:18:01.333Z,11.88
2019-04-28T18:20:28.952Z,11.96
2019-04-28T18:22:56.232Z,11.99
2019-04-28T18:25:23.560Z,12.00
2019-04-28T18:27:50.815Z,11.97
2019-04-28T18:30:20.692Z,11.96
2019-04-28T18:33:17.072Z,12.05
2019-04-28T18:35:51.046Z,11.99
2019-04-28T18:38:40.700Z,11.87
2019-04-28T18:41:26.138Z,11.92
2019-04-28T18:44:06.619Z,11.88
2019-04-28T18:46:33.884Z,11.83
2019-04-28T18:49:01.109Z,11.83
2019-04-28T18:51:28.385Z,11.82
2019-04-28T18:53:55.649Z,11.78
2019-04-28T18:56:22.886Z,11.80
2019-04-28T18:58:50.175Z,11.80
2019-04-28T19:01:31.647Z,11.76
2019-04-28T19:03:58.928Z,11.78
2019-04-28T19:06:26.153Z,11.78
2019-04-28T19:08:58.742Z,11.66
2019-04-28T19:11:45.611Z,11.68
2019-04-28T19:14:22.128Z,11.64
2019-04-28T19:17:11.630Z,11.67
2019-04-28T19:19:39.072Z,11.61
2019-04-28T19:22:06.334Z,11.55
2019-04-28T19:24:33.647Z,11.59
2019-04-28T19:27:00.862Z,11.62
2019-04-28T19:29:28.090Z,11.62
2019-04-28T19:31:55.363Z,11.53
2019-04-28T19:34:22.577Z,11.38
2019-04-28T19:36:49.857Z,11.40
2019-04-28T19:39:17.114Z,11.32
2019-04-28T19:41:44.342Z,11.18
2019-04-28T19:44:11.575Z,11.30
2019-04-28T19:46:38.844Z,11.26
2019-04-28T19:49:06.065Z,11.26
2019-04-28T19:51:33.392Z,11.25
2019-04-28T19:54:00.940Z,11.21
2019-04-28T19:56:47.697Z,11.21
2019-04-28T19:59:22.149Z,11.18
2019-04-28T20:01:49.477Z,11.18
2019-04-28T20:04:16.710Z,11.18
2019-04-28T20:06:43.987Z,11.19
2019-04-28T20:09:12.602Z,11.12
2019-04-28T20:11:40.214Z,11.10
2019-04-28T20:14:07.491Z,11.09
2019-04-28T20:16:34.711Z,11.08
2019-04-28T20:19:01.935Z,10.97
2019-04-28T20:21:29.189Z,10.89
2019-04-28T20:23:56.767Z,10.89
2019-04-28T20:26:24.047Z,10.92
2019-04-28T20:28:51.326Z,10.89
2019-04-28T20:31:18.556Z,10.85
2019-04-28T20:33:45.775Z,10.83
2019-04-28T20:36:25.010Z,10.83
2019-04-28T20:38:55.401Z,10.81
2019-04-28T20:41:24.635Z,10.75
2019-04-28T20:43:53.175Z,10.75
2019-04-28T20:46:20.865Z,10.77
2019-04-28T20:48:48.106Z,10.74
2019-04-28T20:51:15.393Z,10.74
2019-04-28T20:53:42.716Z,10.74
2019-04-28T20:56:09.980Z,10.69
2019-04-28T20:58:37.274Z,10.71
2019-04-28T21:01:04.703Z,10.71
2019-04-28T21:03:31.961Z,10.70
2019-04-28T21:05:59.243Z,10.70
2019-04-28T21:08:26.512Z,10.69
2019-04-28T21:10:53.768Z,10.65
2019-04-28T21:13:21.066Z,10.64
2019-04-28T21:15:48.307Z,10.56
2019-04-28T21:18:15.546Z,10.55
2019-04-28T21:20:42.796Z,10.53
2019-04-28T21:23:10.104Z,10.52
2019-04-28T21:25:37.420Z,10.40
2019-04-28T21:28:04.708Z,10.40
2019-04-28T21:30:31.985Z,10.41
2019-04-28T21:32:59.219Z,10.41
2019-04-28T21:35:26.520Z,10.35
2019-04-28T21:37:53.753Z,10.26
2019-04-28T21:40:21.100Z,10.27
2019-04-28T21:43:10.741Z,10.28
2019-04-28T21:46:03.284Z,10.27
2019-04-28T21:48:37.165Z,10.27
2019-04-28T21:51:04.431Z,10.20
2019-04-28T21:53:31.761Z,10.20
2019-04-28T21:55:59.087Z,10.22
2019-04-28T21:58:32.945Z,10.21
2019-04-28T22:00:56.114Z,10.19
2019-04-28T22:03:23.491Z,10.11
2019-04-28T22:05:50.940Z,10.11
2019-04-28T22:08:18.326Z,10.14
2019-04-28T22:10:45.627Z,10.10
2019-04-28T22:13:12.854Z,10.08
2019-04-28T22:15:40.115Z,10.05
2019-04-28T22:18:07.459Z,10.05
2019-04-28T22:20:34.751Z,10.02
2019-04-28T22:23:17.829Z,10.00
2019-04-28T22:25:33.739Z,9.99
2019-04-28T22:28:00.985Z,9.97
2019-04-28T22:30:28.197Z,9.94
2019-04-28T22:32:55.437Z,9.91
2019-04-28T22:35:22.717Z,9.89
2019-04-28T22:37:49.934Z,9.87
2019-04-28T22:40:17.164Z,9.84
2019-04-28T22:42:44.477Z,9.85
2019-04-28T22:45:13.394Z,9.81
2019-04-28T22:47:40.917Z,9.78
2019-04-28T22:50:30.016Z,9.72
2019-04-28T22:52:57.310Z,9.73
2019-04-28T22:55:24.933Z,9.73
2019-04-28T22:58:11.370Z,9.71
2019-04-28T23:01:00.546Z,9.67
2019-04-28T23:03:53.554Z,9.63
2019-04-28T23:06:21.016Z,9.58
2019-04-28T23:08:48.335Z,9.53
2019-04-28T23:11:15.724Z,9.53
2019-04-28T23:13:43.440Z,9.51
2019-04-28T23:16:10.782Z,9.49
2019-04-28T23:18:38.024Z,9.46
2019-04-28T23:21:13.178Z,9.44
2019-04-28T23:23:40.433Z,9.44
2019-04-28T23:26:07.696Z,9.40
2019-04-28T23:28:35.223Z,9.37
2019-04-28T23:31:02.565Z,9.35
2019-04-28T23:33:29.793Z,9.25
2019-04-28T23:35:57.445Z,9.25
2019-04-28T23:38:24.670Z,9.31
2019-04-28T23:41:11.593Z,9.27
2019-04-28T23:43:38.903Z,9.25
2019-04-28T23:46:06.155Z,9.21
2019-04-28T23:48:33.413Z,9.18
2019-04-28T23:51:10.076Z,9.18
2019-04-28T23:53:57.633Z,9.17
2019-04-28T23:56:24.916Z,9.16
2019-04-28T23:58:52.157Z,9.13
